Park Rapids Airport

About
Name: Park Rapids Airport
Identifier:  PKD/KPKD
Local Time:  18. Aug 08:43 CDT
Location
Park Rapids
  United States

Flights per Day
0 flights
Distance: 411km (255mi)
Punctuality
50% (0 flights per day delayed)
Delay Average: 36 minutes
Current Weather
 14 C (Humidity: 87%)
  7kt (12km/h / 8mph) from 320°
  16km (10 mi.)
 
 METAR KPKD 181253Z AUTO 32007KT 10SM CLR 14/12 A2976 RMK AO2 SLP075 T01390117

Current Flights

Departures
Number Departure To Airline
Arrivals
Number Arrival From Airline

Current Delays

Departures
N/A
Arrivals
N/A

Destinations

Top Destinations
Airport Flights
per week
Seats
per week
  Minneapolis (FCM) 3 - 0 0
  Sioux Falls (FSD) 1 - 0 0
  Spencer (SPW) 0 - 0 0
  Bemidji (BJI) 0 - 0 0
  Omaha (OMA) 0 - 0 0
  Minneapolis (QQA) 0 - 0 0
  Fargo (FAR) 0 - 0 0
  Mankato (MKT) 0 - 0 0
  St. Paul (STP) 0 - 0 0
  Waukesha (UES) 0 - 0 0
  Dubuque (DBQ) 0 - 0 0
  Appleton (ATW) 0 - 0 0
  Sheboygan (SBM) 0 - 0 0

Airlines & Planes

Top Airlines
Airline Flights
per Day
Seats
per Day
  Nolinor Aviation 0 -
Jet Charter Inc ( Franklin Lakes Nj ) 0 -
  National Airlines 0 -
  Novair 0 -
  Flybe Nordic 0 -
NetJets 0 0
Bemidji Airlines 0 -
Ultimate Air Shuttle 0 -
Nordwind Airlines 0 -
Top Plane Types
Model Flights Seats
Beech B300 Super King Air 350 0.3/day - 0
Beech G36 Bonanza 0.1/day - 0
Cessna C525 0.1/day - 0
Bombardier CRJ200 0.1/day - 0
Beech 65-B80 0.1/day - 0
Pilatus PC-12 0.1/day - 0
Cessna C182 0.1/day - 0